sensor_id;sensor_type;location;lat;lon;timestamp;P1;durP1;ratioP1;P2;durP2;ratioP2
65234;SDS011;51820;48.374;10.930;2022-10-16T00:01:32;6.43;;;2.10;;
65234;SDS011;51820;48.374;10.930;2022-10-16T00:04:03;6.70;;;2.28;;
65234;SDS011;51820;48.374;10.930;2022-10-16T00:06:31;5.60;;;2.10;;
65234;SDS011;51820;48.374;10.930;2022-10-16T00:09:00;6.10;;;1.90;;
65234;SDS011;51820;48.374;10.930;2022-10-16T00:11:29;5.88;;;2.00;;
65234;SDS011;51820;48.374;10.930;2022-10-16T00:14:03;11.20;;;2.30;;
65234;SDS011;51820;48.374;10.930;2022-10-16T00:16:34;7.18;;;2.03;;
65234;SDS011;51820;48.374;10.930;2022-10-16T00:19:04;5.95;;;1.88;;
65234;SDS011;51820;48.374;10.930;2022-10-16T00:21:33;5.40;;;1.83;;
65234;SDS011;51820;48.374;10.930;2022-10-16T00:24:02;7.75;;;1.90;;
65234;SDS011;51820;48.374;10.930;2022-10-16T00:26:33;8.13;;;2.10;;
65234;SDS011;51820;48.374;10.930;2022-10-16T00:29:03;5.05;;;1.42;;
65234;SDS011;51820;48.374;10.930;2022-10-16T00:31:32;6.35;;;1.58;;
65234;SDS011;51820;48.374;10.930;2022-10-16T00:34:00;4.97;;;1.80;;
65234;SDS011;51820;48.374;10.930;2022-10-16T00:36:37;5.45;;;1.90;;
65234;SDS011;51820;48.374;10.930;2022-10-16T00:39:05;6.23;;;1.60;;
65234;SDS011;51820;48.374;10.930;2022-10-16T00:41:34;5.40;;;1.65;;
65234;SDS011;51820;48.374;10.930;2022-10-16T00:44:03;8.50;;;1.75;;
65234;SDS011;51820;48.374;10.930;2022-10-16T00:46:53;6.82;;;2.03;;
65234;SDS011;51820;48.374;10.930;2022-10-16T00:49:21;5.63;;;1.60;;
65234;SDS011;51820;48.374;10.930;2022-10-16T00:51:51;5.57;;;1.73;;
65234;SDS011;51820;48.374;10.930;2022-10-16T00:54:22;5.82;;;1.80;;
65234;SDS011;51820;48.374;10.930;2022-10-16T00:56:53;6.93;;;1.55;;
65234;SDS011;51820;48.374;10.930;2022-10-16T00:59:24;5.72;;;1.60;;
65234;SDS011;51820;48.374;10.930;2022-10-16T01:01:56;5.18;;;1.75;;
65234;SDS011;51820;48.374;10.930;2022-10-16T01:04:25;5.57;;;1.80;;
65234;SDS011;51820;48.374;10.930;2022-10-16T01:06:55;6.22;;;1.63;;
65234;SDS011;51820;48.374;10.930;2022-10-16T01:09:34;4.88;;;1.40;;
65234;SDS011;51820;48.374;10.930;2022-10-16T01:12:10;4.97;;;1.30;;
65234;SDS011;51820;48.374;10.930;2022-10-16T01:14:45;4.85;;;1.58;;
65234;SDS011;51820;48.374;10.930;2022-10-16T01:17:23;4.43;;;1.40;;
65234;SDS011;51820;48.374;10.930;2022-10-16T01:20:06;7.47;;;1.90;;
65234;SDS011;51820;48.374;10.930;2022-10-16T01:22:41;5.18;;;1.88;;
65234;SDS011;51820;48.374;10.930;2022-10-16T01:25:17;4.78;;;1.52;;
65234;SDS011;51820;48.374;10.930;2022-10-16T01:27:54;5.43;;;1.77;;
65234;SDS011;51820;48.374;10.930;2022-10-16T01:30:24;7.00;;;1.67;;
65234;SDS011;51820;48.374;10.930;2022-10-16T01:32:56;4.93;;;1.48;;
65234;SDS011;51820;48.374;10.930;2022-10-16T01:35:29;3.65;;;1.23;;
65234;SDS011;51820;48.374;10.930;2022-10-16T01:38:00;4.65;;;1.38;;
65234;SDS011;51820;48.374;10.930;2022-10-16T01:40:32;6.57;;;1.30;;
65234;SDS011;51820;48.374;10.930;2022-10-16T01:43:05;4.73;;;1.47;;
65234;SDS011;51820;48.374;10.930;2022-10-16T01:45:38;4.95;;;1.35;;
65234;SDS011;51820;48.374;10.930;2022-10-16T01:48:09;4.03;;;1.50;;
65234;SDS011;51820;48.374;10.930;2022-10-16T01:50:41;5.28;;;1.40;;
65234;SDS011;51820;48.374;10.930;2022-10-16T01:53:12;4.88;;;1.20;;
65234;SDS011;51820;48.374;10.930;2022-10-16T01:55:43;7.10;;;1.37;;
65234;SDS011;51820;48.374;10.930;2022-10-16T01:58:15;3.80;;;1.00;;
65234;SDS011;51820;48.374;10.930;2022-10-16T02:00:44;3.75;;;1.05;;
65234;SDS011;51820;48.374;10.930;2022-10-16T02:03:17;5.78;;;1.52;;
65234;SDS011;51820;48.374;10.930;2022-10-16T02:05:47;4.35;;;1.27;;
65234;SDS011;51820;48.374;10.930;2022-10-16T02:08:19;6.67;;;1.20;;
65234;SDS011;51820;48.374;10.930;2022-10-16T02:10:48;6.78;;;1.30;;
65234;SDS011;51820;48.374;10.930;2022-10-16T02:13:19;4.22;;;1.50;;
65234;SDS011;51820;48.374;10.930;2022-10-16T02:15:51;4.75;;;1.40;;
65234;SDS011;51820;48.374;10.930;2022-10-16T02:18:20;4.60;;;1.40;;
65234;SDS011;51820;48.374;10.930;2022-10-16T02:20:50;8.27;;;1.63;;
65234;SDS011;51820;48.374;10.930;2022-10-16T02:23:24;4.68;;;1.60;;
65234;SDS011;51820;48.374;10.930;2022-10-16T02:26:02;6.00;;;1.40;;
65234;SDS011;51820;48.374;10.930;2022-10-16T02:28:36;4.40;;;1.40;;
65234;SDS011;51820;48.374;10.930;2022-10-16T02:31:10;4.43;;;1.40;;
65234;SDS011;51820;48.374;10.930;2022-10-16T02:33:44;6.50;;;1.47;;
65234;SDS011;51820;48.374;10.930;2022-10-16T02:36:13;5.15;;;1.30;;
65234;SDS011;51820;48.374;10.930;2022-10-16T02:38:42;4.53;;;1.30;;
65234;SDS011;51820;48.374;10.930;2022-10-16T02:41:12;4.35;;;1.17;;
65234;SDS011;51820;48.374;10.930;2022-10-16T02:43:42;5.05;;;1.20;;
65234;SDS011;51820;48.374;10.930;2022-10-16T02:46:10;7.50;;;1.50;;
65234;SDS011;51820;48.374;10.930;2022-10-16T02:48:39;6.50;;;1.35;;
65234;SDS011;51820;48.374;10.930;2022-10-16T02:51:07;5.15;;;1.20;;
65234;SDS011;51820;48.374;10.930;2022-10-16T02:53:35;4.75;;;1.10;;
65234;SDS011;51820;48.374;10.930;2022-10-16T02:56:04;5.60;;;1.60;;
65234;SDS011;51820;48.374;10.930;2022-10-16T02:58:33;6.10;;;1.40;;
65234;SDS011;51820;48.374;10.930;2022-10-16T03:01:03;12.60;;;1.63;;
65234;SDS011;51820;48.374;10.930;2022-10-16T03:03:31;5.20;;;1.50;;
65234;SDS011;51820;48.374;10.930;2022-10-16T03:06:01;5.15;;;1.60;;
65234;SDS011;51820;48.374;10.930;2022-10-16T03:08:29;5.93;;;1.60;;
65234;SDS011;51820;48.374;10.930;2022-10-16T03:10:57;7.90;;;1.63;;
65234;SDS011;51820;48.374;10.930;2022-10-16T03:13:27;5.70;;;1.67;;
65234;SDS011;51820;48.374;10.930;2022-10-16T03:15:56;7.20;;;1.63;;
65234;SDS011;51820;48.374;10.930;2022-10-16T03:18:26;5.15;;;1.42;;
65234;SDS011;51820;48.374;10.930;2022-10-16T03:20:54;6.28;;;1.58;;
65234;SDS011;51820;48.374;10.930;2022-10-16T03:23:23;7.17;;;1.87;;
65234;SDS011;51820;48.374;10.930;2022-10-16T03:25:51;5.72;;;1.77;;
65234;SDS011;51820;48.374;10.930;2022-10-16T03:28:20;7.15;;;1.63;;
65234;SDS011;51820;48.374;10.930;2022-10-16T03:30:48;6.75;;;1.42;;
65234;SDS011;51820;48.374;10.930;2022-10-16T03:33:17;6.03;;;1.63;;
65234;SDS011;51820;48.374;10.930;2022-10-16T03:35:51;5.27;;;1.57;;
65234;SDS011;51820;48.374;10.930;2022-10-16T03:38:20;4.85;;;1.50;;
65234;SDS011;51820;48.374;10.930;2022-10-16T03:40:49;4.75;;;1.60;;
65234;SDS011;51820;48.374;10.930;2022-10-16T03:43:18;4.70;;;1.65;;
65234;SDS011;51820;48.374;10.930;2022-10-16T03:45:46;5.95;;;1.42;;
65234;SDS011;51820;48.374;10.930;2022-10-16T03:48:15;7.50;;;1.73;;
65234;SDS011;51820;48.374;10.930;2022-10-16T03:50:44;7.15;;;1.70;;
65234;SDS011;51820;48.374;10.930;2022-10-16T03:53:14;7.70;;;1.60;;
65234;SDS011;51820;48.374;10.930;2022-10-16T03:55:42;5.85;;;1.60;;
65234;SDS011;51820;48.374;10.930;2022-10-16T03:58:11;4.43;;;1.50;;
65234;SDS011;51820;48.374;10.930;2022-10-16T04:00:40;8.60;;;1.43;;
65234;SDS011;51820;48.374;10.930;2022-10-16T04:03:09;5.25;;;1.27;;
65234;SDS011;51820;48.374;10.930;2022-10-16T04:05:38;6.45;;;1.70;;
65234;SDS011;51820;48.374;10.930;2022-10-16T04:08:07;4.50;;;1.38;;
65234;SDS011;51820;48.374;10.930;2022-10-16T04:10:37;4.10;;;1.30;;
65234;SDS011;51820;48.374;10.930;2022-10-16T04:13:05;4.30;;;1.23;;
65234;SDS011;51820;48.374;10.930;2022-10-16T04:15:34;4.38;;;1.30;;
65234;SDS011;51820;48.374;10.930;2022-10-16T04:18:03;4.50;;;1.20;;
65234;SDS011;51820;48.374;10.930;2022-10-16T04:20:32;4.70;;;1.42;;
65234;SDS011;51820;48.374;10.930;2022-10-16T04:23:01;6.18;;;1.23;;
65234;SDS011;51820;48.374;10.930;2022-10-16T04:25:30;13.90;;;1.67;;
65234;SDS011;51820;48.374;10.930;2022-10-16T04:28:00;10.98;;;1.70;;
65234;SDS011;51820;48.374;10.930;2022-10-16T04:30:28;7.53;;;1.52;;
65234;SDS011;51820;48.374;10.930;2022-10-16T04:32:57;5.05;;;1.42;;
65234;SDS011;51820;48.374;10.930;2022-10-16T04:35:26;5.40;;;1.48;;
65234;SDS011;51820;48.374;10.930;2022-10-16T04:37:56;5.07;;;1.50;;
65234;SDS011;51820;48.374;10.930;2022-10-16T04:40:25;5.45;;;1.30;;
65234;SDS011;51820;48.374;10.930;2022-10-16T04:42:54;4.43;;;1.30;;
65234;SDS011;51820;48.374;10.930;2022-10-16T04:45:24;6.07;;;1.30;;
65234;SDS011;51820;48.374;10.930;2022-10-16T04:47:53;5.55;;;1.20;;
65234;SDS011;51820;48.374;10.930;2022-10-16T04:50:25;8.17;;;1.53;;
65234;SDS011;51820;48.374;10.930;2022-10-16T04:53:06;10.00;;;1.58;;
65234;SDS011;51820;48.374;10.930;2022-10-16T04:55:35;3.50;;;1.15;;
65234;SDS011;51820;48.374;10.930;2022-10-16T04:58:03;4.47;;;1.17;;
65234;SDS011;51820;48.374;10.930;2022-10-16T05:00:33;6.18;;;1.20;;
65234;SDS011;51820;48.374;10.930;2022-10-16T05:03:02;4.10;;;1.20;;
65234;SDS011;51820;48.374;10.930;2022-10-16T05:05:35;5.13;;;1.50;;
65234;SDS011;51820;48.374;10.930;2022-10-16T05:08:05;4.45;;;1.30;;
65234;SDS011;51820;48.374;10.930;2022-10-16T05:10:34;5.55;;;1.00;;
65234;SDS011;51820;48.374;10.930;2022-10-16T05:13:03;4.53;;;1.30;;
65234;SDS011;51820;48.374;10.930;2022-10-16T05:15:32;7.90;;;1.30;;
65234;SDS011;51820;48.374;10.930;2022-10-16T05:18:02;3.90;;;1.10;;
65234;SDS011;51820;48.374;10.930;2022-10-16T05:20:30;5.07;;;1.42;;
65234;SDS011;51820;48.374;10.930;2022-10-16T05:22:58;5.88;;;1.30;;
65234;SDS011;51820;48.374;10.930;2022-10-16T05:25:27;4.05;;;1.30;;
65234;SDS011;51820;48.374;10.930;2022-10-16T05:27:55;5.77;;;1.40;;
65234;SDS011;51820;48.374;10.930;2022-10-16T05:30:25;5.30;;;1.30;;
65234;SDS011;51820;48.374;10.930;2022-10-16T05:32:53;5.45;;;1.33;;
65234;SDS011;51820;48.374;10.930;2022-10-16T05:35:23;3.83;;;1.05;;
65234;SDS011;51820;48.374;10.930;2022-10-16T05:37:52;3.72;;;1.20;;
65234;SDS011;51820;48.374;10.930;2022-10-16T05:40:20;3.50;;;1.20;;
65234;SDS011;51820;48.374;10.930;2022-10-16T05:42:49;4.93;;;1.10;;
65234;SDS011;51820;48.374;10.930;2022-10-16T05:45:18;6.38;;;1.08;;
65234;SDS011;51820;48.374;10.930;2022-10-16T05:47:46;4.80;;;1.10;;
65234;SDS011;51820;48.374;10.930;2022-10-16T05:50:14;4.75;;;1.25;;
65234;SDS011;51820;48.374;10.930;2022-10-16T05:52:44;4.20;;;1.23;;
65234;SDS011;51820;48.374;10.930;2022-10-16T05:55:13;4.03;;;1.10;;
65234;SDS011;51820;48.374;10.930;2022-10-16T05:57:42;7.28;;;1.42;;
65234;SDS011;51820;48.374;10.930;2022-10-16T06:00:10;3.40;;;1.10;;
65234;SDS011;51820;48.374;10.930;2022-10-16T06:02:39;6.63;;;1.30;;
65234;SDS011;51820;48.374;10.930;2022-10-16T06:05:08;4.33;;;1.10;;
65234;SDS011;51820;48.374;10.930;2022-10-16T06:07:38;3.80;;;1.00;;
65234;SDS011;51820;48.374;10.930;2022-10-16T06:10:16;4.70;;;1.10;;
65234;SDS011;51820;48.374;10.930;2022-10-16T06:12:44;4.10;;;1.10;;
65234;SDS011;51820;48.374;10.930;2022-10-16T06:15:12;8.43;;;1.25;;
65234;SDS011;51820;48.374;10.930;2022-10-16T06:17:43;4.03;;;1.03;;
65234;SDS011;51820;48.374;10.930;2022-10-16T06:20:20;5.20;;;1.50;;
65234;SDS011;51820;48.374;10.930;2022-10-16T06:22:55;4.05;;;1.30;;
65234;SDS011;51820;48.374;10.930;2022-10-16T06:25:25;4.10;;;1.05;;
65234;SDS011;51820;48.374;10.930;2022-10-16T06:27:53;4.97;;;1.20;;
65234;SDS011;51820;48.374;10.930;2022-10-16T06:30:21;4.10;;;1.20;;
65234;SDS011;51820;48.374;10.930;2022-10-16T06:32:50;5.28;;;1.05;;
65234;SDS011;51820;48.374;10.930;2022-10-16T06:35:24;3.90;;;0.90;;
65234;SDS011;51820;48.374;10.930;2022-10-16T06:37:52;6.78;;;1.50;;
65234;SDS011;51820;48.374;10.930;2022-10-16T06:40:21;8.65;;;1.30;;
65234;SDS011;51820;48.374;10.930;2022-10-16T06:42:51;7.63;;;1.53;;
65234;SDS011;51820;48.374;10.930;2022-10-16T06:45:22;7.93;;;1.30;;
65234;SDS011;51820;48.374;10.930;2022-10-16T06:47:50;4.15;;;1.20;;
65234;SDS011;51820;48.374;10.930;2022-10-16T06:50:19;5.30;;;1.25;;
65234;SDS011;51820;48.374;10.930;2022-10-16T06:52:47;4.13;;;1.23;;
65234;SDS011;51820;48.374;10.930;2022-10-16T06:55:16;4.77;;;1.30;;
65234;SDS011;51820;48.374;10.930;2022-10-16T06:57:46;5.28;;;1.30;;
65234;SDS011;51820;48.374;10.930;2022-10-16T07:00:16;4.53;;;1.20;;
65234;SDS011;51820;48.374;10.930;2022-10-16T07:02:44;4.47;;;1.00;;
65234;SDS011;51820;48.374;10.930;2022-10-16T07:05:13;4.90;;;1.00;;
65234;SDS011;51820;48.374;10.930;2022-10-16T07:07:42;5.07;;;1.27;;
65234;SDS011;51820;48.374;10.930;2022-10-16T07:10:10;3.22;;;0.90;;
65234;SDS011;51820;48.374;10.930;2022-10-16T07:12:39;4.22;;;1.02;;
65234;SDS011;51820;48.374;10.930;2022-10-16T07:15:08;6.18;;;1.40;;
65234;SDS011;51820;48.374;10.930;2022-10-16T07:17:38;6.07;;;1.35;;
65234;SDS011;51820;48.374;10.930;2022-10-16T07:20:06;5.43;;;1.20;;
65234;SDS011;51820;48.374;10.930;2022-10-16T07:22:35;4.00;;;1.15;;
65234;SDS011;51820;48.374;10.930;2022-10-16T07:25:04;4.65;;;1.20;;
65234;SDS011;51820;48.374;10.930;2022-10-16T07:27:33;5.03;;;1.25;;
65234;SDS011;51820;48.374;10.930;2022-10-16T07:30:04;4.03;;;1.10;;
65234;SDS011;51820;48.374;10.930;2022-10-16T07:32:34;5.27;;;1.00;;
65234;SDS011;51820;48.374;10.930;2022-10-16T07:35:05;4.70;;;1.30;;
65234;SDS011;51820;48.374;10.930;2022-10-16T07:37:34;3.72;;;1.05;;
65234;SDS011;51820;48.374;10.930;2022-10-16T07:40:03;4.70;;;1.50;;
65234;SDS011;51820;48.374;10.930;2022-10-16T07:42:33;4.82;;;1.55;;
65234;SDS011;51820;48.374;10.930;2022-10-16T07:45:01;4.40;;;1.57;;
65234;SDS011;51820;48.374;10.930;2022-10-16T07:47:30;5.00;;;1.52;;
65234;SDS011;51820;48.374;10.930;2022-10-16T07:49:58;4.45;;;1.20;;
65234;SDS011;51820;48.374;10.930;2022-10-16T07:52:28;6.00;;;1.38;;
65234;SDS011;51820;48.374;10.930;2022-10-16T07:54:57;5.55;;;1.40;;
65234;SDS011;51820;48.374;10.930;2022-10-16T07:57:25;6.67;;;1.40;;
65234;SDS011;51820;48.374;10.930;2022-10-16T07:59:54;5.97;;;1.30;;
65234;SDS011;51820;48.374;10.930;2022-10-16T08:02:23;4.80;;;1.20;;
65234;SDS011;51820;48.374;10.930;2022-10-16T08:04:51;5.38;;;1.30;;
65234;SDS011;51820;48.374;10.930;2022-10-16T08:07:23;7.10;;;1.40;;
65234;SDS011;51820;48.374;10.930;2022-10-16T08:09:53;4.73;;;1.60;;
65234;SDS011;51820;48.374;10.930;2022-10-16T08:12:23;4.75;;;1.40;;
65234;SDS011;51820;48.374;10.930;2022-10-16T08:14:51;4.97;;;1.35;;
65234;SDS011;51820;48.374;10.930;2022-10-16T08:17:20;4.10;;;1.30;;
65234;SDS011;51820;48.374;10.930;2022-10-16T08:19:52;5.55;;;1.30;;
65234;SDS011;51820;48.374;10.930;2022-10-16T08:22:27;5.87;;;1.40;;
65234;SDS011;51820;48.374;10.930;2022-10-16T08:25:01;5.10;;;1.60;;
65234;SDS011;51820;48.374;10.930;2022-10-16T08:27:45;6.15;;;1.23;;
65234;SDS011;51820;48.374;10.930;2022-10-16T08:30:14;3.90;;;1.10;;
65234;SDS011;51820;48.374;10.930;2022-10-16T08:32:45;5.00;;;1.35;;
65234;SDS011;51820;48.374;10.930;2022-10-16T08:35:15;5.80;;;1.50;;
65234;SDS011;51820;48.374;10.930;2022-10-16T08:37:44;4.40;;;1.20;;
65234;SDS011;51820;48.374;10.930;2022-10-16T08:40:22;6.78;;;1.30;;
65234;SDS011;51820;48.374;10.930;2022-10-16T08:43:11;6.55;;;1.30;;
65234;SDS011;51820;48.374;10.930;2022-10-16T08:45:55;4.00;;;1.20;;
65234;SDS011;51820;48.374;10.930;2022-10-16T08:48:45;5.67;;;1.10;;
65234;SDS011;51820;48.374;10.930;2022-10-16T08:51:18;4.20;;;1.15;;
65234;SDS011;51820;48.374;10.930;2022-10-16T08:53:53;5.05;;;1.13;;
65234;SDS011;51820;48.374;10.930;2022-10-16T08:56:29;3.78;;;1.20;;
65234;SDS011;51820;48.374;10.930;2022-10-16T08:59:03;5.15;;;1.10;;
65234;SDS011;51820;48.374;10.930;2022-10-16T09:01:41;4.33;;;1.30;;
65234;SDS011;51820;48.374;10.930;2022-10-16T09:04:28;4.70;;;1.15;;
65234;SDS011;51820;48.374;10.930;2022-10-16T09:07:17;4.25;;;1.40;;
65234;SDS011;51820;48.374;10.930;2022-10-16T09:13:10;4.63;;;1.15;;
65234;SDS011;51820;48.374;10.930;2022-10-16T09:15:46;3.97;;;1.30;;
65234;SDS011;51820;48.374;10.930;2022-10-16T09:18:22;4.93;;;1.95;;
65234;SDS011;51820;48.374;10.930;2022-10-16T09:21:02;7.65;;;1.30;;
65234;SDS011;51820;48.374;10.930;2022-10-16T09:23:37;7.55;;;1.17;;
65234;SDS011;51820;48.374;10.930;2022-10-16T09:26:09;6.47;;;1.20;;
65234;SDS011;51820;48.374;10.930;2022-10-16T09:28:41;3.77;;;1.20;;
65234;SDS011;51820;48.374;10.930;2022-10-16T09:31:12;5.78;;;1.70;;
65234;SDS011;51820;48.374;10.930;2022-10-16T09:33:47;5.05;;;1.20;;
65234;SDS011;51820;48.374;10.930;2022-10-16T09:36:20;4.57;;;1.27;;
65234;SDS011;51820;48.374;10.930;2022-10-16T09:39:01;7.30;;;1.20;;
65234;SDS011;51820;48.374;10.930;2022-10-16T09:41:33;3.60;;;1.10;;
65234;SDS011;51820;48.374;10.930;2022-10-16T09:44:05;3.85;;;1.20;;
65234;SDS011;51820;48.374;10.930;2022-10-16T09:46:45;3.53;;;0.90;;
65234;SDS011;51820;48.374;10.930;2022-10-16T09:49:21;3.55;;;1.10;;
65234;SDS011;51820;48.374;10.930;2022-10-16T09:51:51;3.83;;;1.10;;
65234;SDS011;51820;48.374;10.930;2022-10-16T09:54:20;5.30;;;1.47;;
65234;SDS011;51820;48.374;10.930;2022-10-16T09:56:49;9.23;;;1.30;;
65234;SDS011;51820;48.374;10.930;2022-10-16T09:59:20;4.45;;;1.17;;
65234;SDS011;51820;48.374;10.930;2022-10-16T10:01:53;3.55;;;1.20;;
65234;SDS011;51820;48.374;10.930;2022-10-16T10:04:23;3.55;;;1.13;;
65234;SDS011;51820;48.374;10.930;2022-10-16T10:06:55;5.43;;;1.47;;
65234;SDS011;51820;48.374;10.930;2022-10-16T10:09:26;4.47;;;1.20;;
65234;SDS011;51820;48.374;10.930;2022-10-16T10:12:14;3.97;;;1.20;;
65234;SDS011;51820;48.374;10.930;2022-10-16T10:14:55;4.57;;;1.30;;
65234;SDS011;51820;48.374;10.930;2022-10-16T10:17:24;3.92;;;1.10;;
65234;SDS011;51820;48.374;10.930;2022-10-16T10:19:54;4.23;;;1.00;;
65234;SDS011;51820;48.374;10.930;2022-10-16T10:22:39;4.00;;;1.30;;
65234;SDS011;51820;48.374;10.930;2022-10-16T10:25:31;4.22;;;0.93;;
65234;SDS011;51820;48.374;10.930;2022-10-16T10:28:29;3.53;;;1.00;;
65234;SDS011;51820;48.374;10.930;2022-10-16T10:31:16;3.88;;;1.13;;
65234;SDS011;51820;48.374;10.930;2022-10-16T10:33:52;4.70;;;1.20;;
65234;SDS011;51820;48.374;10.930;2022-10-16T10:36:28;5.47;;;1.10;;
65234;SDS011;51820;48.374;10.930;2022-10-16T10:39:00;6.53;;;1.35;;
65234;SDS011;51820;48.374;10.930;2022-10-16T10:44:37;7.90;;;1.85;;
65234;SDS011;51820;48.374;10.930;2022-10-16T10:47:22;7.73;;;1.50;;
65234;SDS011;51820;48.374;10.930;2022-10-16T10:49:58;8.13;;;1.50;;
65234;SDS011;51820;48.374;10.930;2022-10-16T10:52:36;6.78;;;1.40;;
65234;SDS011;51820;48.374;10.930;2022-10-16T10:55:19;5.10;;;1.05;;
65234;SDS011;51820;48.374;10.930;2022-10-16T10:58:11;4.07;;;1.45;;
65234;SDS011;51820;48.374;10.930;2022-10-16T11:01:02;5.43;;;1.10;;
65234;SDS011;51820;48.374;10.930;2022-10-16T11:03:50;7.18;;;1.17;;
65234;SDS011;51820;48.374;10.930;2022-10-16T11:06:30;5.95;;;1.17;;
65234;SDS011;51820;48.374;10.930;2022-10-16T11:09:02;6.15;;;1.50;;
65234;SDS011;51820;48.374;10.930;2022-10-16T11:11:41;4.63;;;1.38;;
65234;SDS011;51820;48.374;10.930;2022-10-16T11:14:14;5.33;;;1.20;;
65234;SDS011;51820;48.374;10.930;2022-10-16T11:17:13;3.95;;;0.82;;
65234;SDS011;51820;48.374;10.930;2022-10-16T11:19:49;5.82;;;1.20;;
65234;SDS011;51820;48.374;10.930;2022-10-16T11:22:23;3.75;;;1.08;;
65234;SDS011;51820;48.374;10.930;2022-10-16T11:24:59;8.55;;;1.50;;
65234;SDS011;51820;48.374;10.930;2022-10-16T11:27:35;6.13;;;1.10;;
65234;SDS011;51820;48.374;10.930;2022-10-16T11:30:12;4.88;;;1.05;;
65234;SDS011;51820;48.374;10.930;2022-10-16T11:32:49;6.80;;;1.45;;
65234;SDS011;51820;48.374;10.930;2022-10-16T11:35:30;3.72;;;1.30;;
65234;SDS011;51820;48.374;10.930;2022-10-16T11:38:08;3.28;;;1.10;;
65234;SDS011;51820;48.374;10.930;2022-10-16T11:40:43;5.70;;;1.20;;
65234;SDS011;51820;48.374;10.930;2022-10-16T11:43:15;5.38;;;1.10;;
65234;SDS011;51820;48.374;10.930;2022-10-16T11:45:49;4.63;;;1.13;;
65234;SDS011;51820;48.374;10.930;2022-10-16T11:48:23;3.08;;;1.00;;
65234;SDS011;51820;48.374;10.930;2022-10-16T11:51:02;4.63;;;1.10;;
65234;SDS011;51820;48.374;10.930;2022-10-16T11:53:41;3.43;;;0.90;;
65234;SDS011;51820;48.374;10.930;2022-10-16T11:56:13;3.15;;;1.05;;
65234;SDS011;51820;48.374;10.930;2022-10-16T11:58:47;5.30;;;1.48;;
65234;SDS011;51820;48.374;10.930;2022-10-16T12:01:27;5.68;;;1.40;;
65234;SDS011;51820;48.374;10.930;2022-10-16T12:04:06;4.15;;;1.10;;
65234;SDS011;51820;48.374;10.930;2022-10-16T12:06:46;7.20;;;1.40;;
65234;SDS011;51820;48.374;10.930;2022-10-16T12:09:20;4.43;;;1.13;;
65234;SDS011;51820;48.374;10.930;2022-10-16T12:11:52;4.55;;;1.15;;
65234;SDS011;51820;48.374;10.930;2022-10-16T12:14:22;5.75;;;1.30;;
65234;SDS011;51820;48.374;10.930;2022-10-16T12:17:24;3.90;;;1.00;;
65234;SDS011;51820;48.374;10.930;2022-10-16T12:19:58;4.50;;;1.30;;
65234;SDS011;51820;48.374;10.930;2022-10-16T12:22:29;3.70;;;1.00;;
65234;SDS011;51820;48.374;10.930;2022-10-16T12:25:03;4.80;;;1.10;;
65234;SDS011;51820;48.374;10.930;2022-10-16T12:27:32;4.35;;;1.00;;
65234;SDS011;51820;48.374;10.930;2022-10-16T12:30:03;4.22;;;0.95;;
65234;SDS011;51820;48.374;10.930;2022-10-16T12:32:34;3.70;;;0.90;;
65234;SDS011;51820;48.374;10.930;2022-10-16T12:35:17;3.33;;;0.93;;
65234;SDS011;51820;48.374;10.930;2022-10-16T12:37:49;5.25;;;1.30;;
65234;SDS011;51820;48.374;10.930;2022-10-16T12:40:26;3.10;;;0.80;;
65234;SDS011;51820;48.374;10.930;2022-10-16T12:42:56;4.63;;;1.00;;
65234;SDS011;51820;48.374;10.930;2022-10-16T12:45:26;3.47;;;0.97;;
65234;SDS011;51820;48.374;10.930;2022-10-16T12:47:57;3.40;;;0.80;;
65234;SDS011;51820;48.374;10.930;2022-10-16T12:50:28;5.45;;;0.95;;
65234;SDS011;51820;48.374;10.930;2022-10-16T12:53:00;4.38;;;1.33;;
65234;SDS011;51820;48.374;10.930;2022-10-16T12:55:32;4.28;;;1.10;;
65234;SDS011;51820;48.374;10.930;2022-10-16T12:58:21;4.37;;;1.30;;
65234;SDS011;51820;48.374;10.930;2022-10-16T13:01:07;3.78;;;1.05;;
65234;SDS011;51820;48.374;10.930;2022-10-16T13:03:53;3.42;;;0.90;;
65234;SDS011;51820;48.374;10.930;2022-10-16T13:06:35;7.72;;;1.20;;
65234;SDS011;51820;48.374;10.930;2022-10-16T13:09:30;5.65;;;1.00;;
65234;SDS011;51820;48.374;10.930;2022-10-16T13:12:15;4.43;;;1.30;;
65234;SDS011;51820;48.374;10.930;2022-10-16T13:14:59;2.95;;;0.90;;
65234;SDS011;51820;48.374;10.930;2022-10-16T13:17:41;3.63;;;0.90;;
65234;SDS011;51820;48.374;10.930;2022-10-16T13:20:16;2.92;;;0.90;;
65234;SDS011;51820;48.374;10.930;2022-10-16T13:22:53;2.90;;;0.90;;
65234;SDS011;51820;48.374;10.930;2022-10-16T13:25:35;2.90;;;0.80;;
65234;SDS011;51820;48.374;10.930;2022-10-16T13:28:10;6.75;;;1.48;;
65234;SDS011;51820;48.374;10.930;2022-10-16T13:30:42;8.32;;;1.20;;
65234;SDS011;51820;48.374;10.930;2022-10-16T13:33:13;8.80;;;1.70;;
65234;SDS011;51820;48.374;10.930;2022-10-16T13:35:51;3.92;;;1.10;;
65234;SDS011;51820;48.374;10.930;2022-10-16T13:38:22;3.80;;;1.10;;
65234;SDS011;51820;48.374;10.930;2022-10-16T13:40:54;7.57;;;1.02;;
65234;SDS011;51820;48.374;10.930;2022-10-16T13:43:24;5.07;;;1.17;;
65234;SDS011;51820;48.374;10.930;2022-10-16T13:45:57;4.68;;;1.27;;
65234;SDS011;51820;48.374;10.930;2022-10-16T13:48:28;6.78;;;1.20;;
65234;SDS011;51820;48.374;10.930;2022-10-16T13:51:00;4.37;;;1.30;;
65234;SDS011;51820;48.374;10.930;2022-10-16T13:53:33;6.05;;;1.20;;
65234;SDS011;51820;48.374;10.930;2022-10-16T13:56:06;7.00;;;1.30;;
65234;SDS011;51820;48.374;10.930;2022-10-16T13:58:38;5.13;;;1.15;;
65234;SDS011;51820;48.374;10.930;2022-10-16T14:01:15;4.50;;;1.10;;
65234;SDS011;51820;48.374;10.930;2022-10-16T14:03:46;3.67;;;1.13;;
65234;SDS011;51820;48.374;10.930;2022-10-16T14:06:15;5.70;;;1.20;;
65234;SDS011;51820;48.374;10.930;2022-10-16T14:08:48;4.03;;;1.27;;
65234;SDS011;51820;48.374;10.930;2022-10-16T14:11:24;4.97;;;1.33;;
65234;SDS011;51820;48.374;10.930;2022-10-16T14:13:53;3.33;;;0.93;;
65234;SDS011;51820;48.374;10.930;2022-10-16T14:16:23;5.13;;;1.40;;
65234;SDS011;51820;48.374;10.930;2022-10-16T14:18:55;6.10;;;1.38;;
65234;SDS011;51820;48.374;10.930;2022-10-16T14:21:25;5.50;;;1.00;;
65234;SDS011;51820;48.374;10.930;2022-10-16T14:23:54;4.97;;;1.20;;
65234;SDS011;51820;48.374;10.930;2022-10-16T14:26:25;3.90;;;1.10;;
65234;SDS011;51820;48.374;10.930;2022-10-16T14:29:03;3.97;;;1.10;;
65234;SDS011;51820;48.374;10.930;2022-10-16T14:31:38;6.88;;;1.23;;
65234;SDS011;51820;48.374;10.930;2022-10-16T14:36:55;4.07;;;1.17;;
65234;SDS011;51820;48.374;10.930;2022-10-16T14:39:24;4.63;;;1.23;;
65234;SDS011;51820;48.374;10.930;2022-10-16T14:41:56;4.20;;;1.13;;
65234;SDS011;51820;48.374;10.930;2022-10-16T14:44:27;5.57;;;1.23;;
65234;SDS011;51820;48.374;10.930;2022-10-16T14:46:58;3.55;;;1.02;;
65234;SDS011;51820;48.374;10.930;2022-10-16T14:49:35;6.18;;;1.20;;
65234;SDS011;51820;48.374;10.930;2022-10-16T14:52:07;4.88;;;1.13;;
65234;SDS011;51820;48.374;10.930;2022-10-16T14:54:37;5.70;;;1.37;;
65234;SDS011;51820;48.374;10.930;2022-10-16T14:57:14;7.60;;;1.17;;
65234;SDS011;51820;48.374;10.930;2022-10-16T14:59:46;7.00;;;1.25;;
65234;SDS011;51820;48.374;10.930;2022-10-16T15:02:19;4.32;;;1.30;;
65234;SDS011;51820;48.374;10.930;2022-10-16T15:04:52;3.90;;;1.00;;
65234;SDS011;51820;48.374;10.930;2022-10-16T15:07:21;6.00;;;1.60;;
65234;SDS011;51820;48.374;10.930;2022-10-16T15:09:50;5.68;;;1.40;;
65234;SDS011;51820;48.374;10.930;2022-10-16T15:12:21;4.30;;;1.50;;
65234;SDS011;51820;48.374;10.930;2022-10-16T15:14:50;5.20;;;1.30;;